Time;durP1;ratioP1;P1;durP2;ratioP2;P2;SDS_P1;SDS_P2;PMS_P1;PMS_P2;Temp;Humidity;BMP_temperature;BMP_pressure;BME280_temperature;BME280_humidity;BME280_pressure;Samples;Min_cycle;Max_cycle;Signal;HPM_P1;HPM_P2
2023/07/01 06:43:41;;;;;;;5.78;1.83;;;;;;;17.69;66.43;96139.50;2087089;28;21070;-58
2023/07/01 06:45:48;;;;;;;4.97;1.80;;;;;;;17.79;64.57;96142.25;2099901;27;20546;-60
2023/07/01 06:48:09;;;;;;;8.73;1.70;;;;;;;17.84;63.96;96137.44;2106119;27;20549;-58
2023/07/01 06:49:10;;;;;;;11.93;1.42;;;;;;;17.97;63.98;96133.78;2101887;27;20757;-58
2023/07/01 06:50:11;;;;;;;18.08;12.32;;;;;;;17.91;63.10;96133.28;2100062;28;20198;-58
2023/07/01 06:51:13;;;;;;;32.88;27.38;;;;;;;17.92;62.34;96137.63;2116791;28;20190;-58
2023/07/01 06:52:15;;;;;;;512.85;464.00;;;;;;;18.04;62.09;96135.81;2116828;28;20190;-58
2023/07/01 06:53:16;;;;;;;940.85;851.45;;;;;;;18.18;61.32;96132.03;2099696;28;20237;-58
2023/07/01 06:54:19;;;;;;;1210.43;999.90;;;;;;;18.17;61.88;96135.63;2099654;28;20682;-58
2023/07/01 06:55:21;;;;;;;1370.55;999.90;;;;;;;18.07;62.44;96135.56;2100984;28;20332;-58
2023/07/01 06:56:22;;;;;;;2025.63;999.90;;;;;;;18.03;62.64;96128.00;2100180;28;20226;-58
2023/07/01 06:57:24;;;;;;;1142.88;999.45;;;;;;;18.08;62.29;96129.31;2100434;28;20214;-58
2023/07/01 06:58:25;;;;;;;1078.90;979.70;;;;;;;18.10;61.50;96132.63;2100371;28;20873;-58
2023/07/01 06:59:27;;;;;;;1088.28;978.42;;;;;;;18.02;61.84;96137.75;2099856;28;20254;-58
2023/07/01 07:00:30;;;;;;;934.10;848.35;;;;;;;18.02;62.27;96131.63;2100622;28;20203;-58
2023/07/01 07:01:32;;;;;;;855.20;780.50;;;;;;;18.05;61.50;96134.81;2100307;28;20610;-58
2023/07/01 07:02:33;;;;;;;878.78;798.13;;;;;;;18.06;61.73;96128.59;2099265;28;20202;-58
2023/07/01 07:03:39;;;;;;;1107.82;986.15;;;;;;;18.18;61.90;96133.81;2100456;28;20195;-58
2023/07/01 07:04:40;;;;;;;931.15;848.10;;;;;;;18.28;62.14;96135.56;2100193;28;20195;-58
2023/07/01 07:05:42;;;;;;;894.50;813.83;;;;;;;18.21;61.77;96137.03;2100856;28;20808;-58
2023/07/01 07:06:44;;;;;;;948.25;852.22;;;;;;;18.24;62.44;96135.94;2100489;28;20850;-58
2023/07/01 07:07:46;;;;;;;1189.15;939.92;;;;;;;18.27;62.64;96135.69;2100054;28;20218;-58
2023/07/01 07:08:47;;;;;;;948.65;859.30;;;;;;;18.23;62.25;96132.47;2100079;28;20196;-58
2023/07/01 07:09:49;;;;;;;2250.00;999.90;;;;;;;18.31;62.47;96137.13;2102397;28;20256;-58
2023/07/01 07:10:50;;;;;;;1283.15;984.45;;;;;;;18.30;62.58;96135.44;2099587;28;20203;-58
2023/07/01 07:11:54;;;;;;;1543.00;890.03;;;;;;;18.29;62.46;96139.03;2099001;28;20210;-58
2023/07/01 07:12:56;;;;;;;1228.03;916.38;;;;;;;18.52;62.85;96133.63;2100580;28;20203;-58
2023/07/01 07:13:57;;;;;;;2250.00;999.90;;;;;;;18.46;61.83;96139.44;2099793;28;20223;-58
2023/07/01 07:14:59;;;;;;;1637.65;881.28;;;;;;;18.65;62.26;96133.41;2100380;28;20329;-58
2023/07/01 07:16:00;;;;;;;2250.00;999.90;;;;;;;18.53;62.36;96136.13;2099415;28;20274;-58
2023/07/01 07:17:02;;;;;;;1490.82;699.22;;;;;;;18.63;62.20;96132.69;2100683;28;20206;-58
2023/07/01 07:18:07;;;;;;;899.75;584.10;;;;;;;18.55;62.81;96128.06;2100477;28;20639;-58
2023/07/01 07:19:09;;;;;;;1587.97;768.70;;;;;;;18.74;62.27;96136.13;2096930;28;20223;-58
2023/07/01 07:20:11;;;;;;;2250.00;999.90;;;;;;;18.64;60.85;96124.66;2098402;28;20191;-58
2023/07/01 07:21:13;;;;;;;2250.00;999.90;;;;;;;18.69;60.27;96125.09;2099459;28;20690;-58
2023/07/01 07:22:14;;;;;;;2250.00;999.90;;;;;;;19.04;60.70;96123.03;2099052;28;20639;-58
2023/07/01 07:23:16;;;;;;;2250.00;999.90;;;;;;;19.13;59.43;96129.34;2097207;28;20192;-58
2023/07/01 07:24:17;;;;;;;2250.00;999.90;;;;;;;18.90;59.96;96124.25;2098420;28;20641;-58
2023/07/01 07:25:19;;;;;;;2250.00;999.90;;;;;;;18.77;60.44;96117.31;2098685;28;20195;-58
2023/07/01 07:26:20;;;;;;;2250.00;999.90;;;;;;;18.94;59.63;96117.69;2099274;28;20635;-60
2023/07/01 07:27:22;;;;;;;2250.00;999.90;;;;;;;19.08;59.49;96119.16;2100644;28;20286;-60
2023/07/01 07:28:23;;;;;;;2250.00;999.90;;;;;;;19.07;59.65;96114.81;2099343;28;20212;-60
2023/07/01 07:29:25;;;;;;;2250.00;999.90;;;;;;;18.97;59.80;96112.16;2097567;28;20227;-60
2023/07/01 07:30:26;;;;;;;2250.00;999.90;;;;;;;19.28;59.03;96106.81;2098861;28;20195;-60
2023/07/01 07:31:28;;;;;;;2250.00;999.90;;;;;;;19.38;59.31;96107.66;2099703;28;20196;-60
2023/07/01 07:32:30;;;;;;;2250.00;999.90;;;;;;;19.12;58.89;96104.66;2098420;28;20199;-60
2023/07/01 07:33:31;;;;;;;2250.00;999.90;;;;;;;19.19;59.68;96112.94;2100283;28;20199;-60
2023/07/01 07:34:33;;;;;;;2250.00;999.90;;;;;;;19.06;59.71;96113.16;2099203;28;20199;-60
2023/07/01 07:35:34;;;;;;;2250.00;999.90;;;;;;;19.04;59.26;96105.34;2100726;28;20222;-60
2023/07/01 07:36:37;;;;;;;2250.00;999.90;;;;;;;18.98;59.31;96111.19;2117377;28;20189;-60
2023/07/01 07:37:39;;;;;;;2250.00;999.90;;;;;;;18.89;59.26;96110.16;2113249;28;20191;-61
2023/07/01 07:38:40;;;;;;;2250.00;999.90;;;;;;;18.70;60.36;96110.91;2100690;28;20240;-60
2023/07/01 07:39:42;;;;;;;2250.00;999.90;;;;;;;18.72;59.80;96102.84;2101186;28;20753;-61
2023/07/01 07:40:43;;;;;;;2250.00;999.90;;;;;;;18.83;59.98;96107.19;2102382;28;20196;-60
2023/07/01 07:41:45;;;;;;;2250.00;999.90;;;;;;;18.71;60.07;96107.28;2102729;28;20514;-60
2023/07/01 07:42:52;;;;;;;2250.00;999.90;;;;;;;18.76;60.52;96105.06;2099770;28;20210;-60
2023/07/01 07:43:54;;;;;;;2250.00;999.90;;;;;;;18.82;60.78;96102.88;2101067;28;20223;-60
2023/07/01 07:44:55;;;;;;;2250.00;999.90;;;;;;;19.09;60.51;96104.94;2098565;28;20287;-60
2023/07/01 07:45:57;;;;;;;2250.00;999.90;;;;;;;18.87;59.22;96119.19;2099886;28;20538;-60
2023/07/01 07:46:59;;;;;;;2250.00;999.90;;;;;;;18.58;59.54;96106.66;2098935;28;20214;-61
2023/07/01 07:48:01;;;;;;;2250.00;999.90;;;;;;;18.65;60.20;96110.47;2099212;28;20276;-60
2023/07/01 07:49:06;;;;;;;2250.00;999.90;;;;;;;18.52;58.74;96115.13;2099111;28;20230;-61
2023/07/01 07:50:08;;;;;;;2250.00;999.90;;;;;;;18.49;58.76;96104.81;2101161;28;20300;-60
2023/07/01 07:51:09;;;;;;;2250.00;999.90;;;;;;;18.58;58.84;96109.31;2100680;28;20649;-60
2023/07/01 07:52:11;;;;;;;2250.00;999.90;;;;;;;18.64;58.91;96107.94;2100163;28;20298;-60
2023/07/01 07:53:13;;;;;;;2250.00;999.90;;;;;;;18.81;58.78;96103.84;2099348;28;20862;-60
2023/07/01 07:54:18;;;;;;;2250.00;999.90;;;;;;;18.82;57.75;96108.19;2114852;28;20242;-60
2023/07/01 07:55:20;;;;;;;2250.00;999.90;;;;;;;18.81;58.99;96109.13;2116033;28;20202;-60
2023/07/01 07:56:21;;;;;;;2250.00;999.90;;;;;;;18.93;58.69;96103.66;2100274;28;20671;-60
2023/07/01 07:57:23;;;;;;;2250.00;999.90;;;;;;;18.92;58.92;96112.56;2101165;28;20199;-60
2023/07/01 07:58:24;;;;;;;2250.00;999.90;;;;;;;18.88;58.62;96107.63;2100435;28;20191;-60
2023/07/01 07:59:28;;;;;;;2250.00;999.90;;;;;;;18.73;59.04;96101.88;2093619;28;20220;-60
2023/07/01 08:01:33;;;;;;;2250.00;999.90;;;;;;;18.39;59.22;96102.94;2084730;28;20569;-58
2023/07/01 08:03:37;;;;;;;2250.00;999.90;;;;;;;18.37;60.37;96096.09;2090699;28;20570;-58
2023/07/01 08:04:39;;;;;;;2250.00;999.90;;;;;;;18.47;59.99;96106.75;2086649;28;20193;-58
2023/07/01 08:05:40;;;;;;;2250.00;999.90;;;;;;;18.44;60.35;96106.03;2086589;28;20279;-58
2023/07/01 08:06:42;;;;;;;2250.00;999.90;;;;;;;18.63;59.65;96096.53;2085640;28;20232;-58
2023/07/01 08:07:46;;;;;;;2250.00;999.90;;;;;;;18.78;60.04;96102.31;2087275;28;20204;-58
2023/07/01 08:08:47;;;;;;;2250.00;999.90;;;;;;;18.82;58.99;96102.88;2086697;28;20203;-58
2023/07/01 08:09:49;;;;;;;2250.00;999.90;;;;;;;18.93;59.52;96105.44;2086063;28;20668;-58
2023/07/01 08:10:50;;;;;;;2250.00;999.90;;;;;;;18.90;59.42;96097.78;2087217;28;20245;-58
2023/07/01 08:11:53;;;;;;;2250.00;999.90;;;;;;;19.23;59.02;96096.63;2087408;28;20204;-58
2023/07/01 08:12:54;;;;;;;2250.00;999.90;;;;;;;19.03;58.43;96095.75;2087192;28;20572;-58
2023/07/01 08:13:55;;;;;;;2250.00;999.90;;;;;;;19.07;58.93;96097.16;2083246;28;20724;-58
2023/07/01 08:14:57;;;;;;;2250.00;999.90;;;;;;;19.08;58.97;96090.91;2078518;28;20189;-58
2023/07/01 08:15:59;;;;;;;2250.00;999.90;;;;;;;19.41;59.43;96101.25;2078959;28;20532;-58
2023/07/01 08:17:00;;;;;;;2250.00;999.90;;;;;;;19.42;57.06;96095.00;2079029;28;20641;-58
2023/07/01 08:18:02;;;;;;;2250.00;999.90;;;;;;;19.37;57.79;96095.41;2078550;28;20201;-58
2023/07/01 08:19:04;;;;;;;2250.00;999.90;;;;;;;19.58;57.36;96097.13;2078557;28;20264;-58
2023/07/01 08:20:06;;;;;;;2250.00;999.90;;;;;;;19.40;57.69;96092.50;2078865;28;20201;-58
2023/07/01 08:21:07;;;;;;;2250.00;999.90;;;;;;;19.50;57.18;96094.31;2077040;28;20209;-58
2023/07/01 08:22:09;;;;;;;2250.00;999.90;;;;;;;19.49;57.50;96082.91;2078747;28;20284;-58
2023/07/01 08:23:11;;;;;;;2250.00;999.90;;;;;;;19.60;57.38;96076.63;2078782;28;20312;-58
2023/07/01 08:24:14;;;;;;;2250.00;999.90;;;;;;;19.63;57.74;96089.59;2078101;28;20285;-58
2023/07/01 08:25:15;;;;;;;2250.00;999.90;;;;;;;19.56;57.03;96083.16;2078779;28;20307;-58
2023/07/01 08:26:17;;;;;;;2250.00;999.90;;;;;;;19.70;56.64;96076.63;2078760;28;20201;-58
2023/07/01 08:27:18;;;;;;;2250.00;999.90;;;;;;;19.45;56.96;96075.34;2078247;28;20544;-58
2023/07/01 08:28:20;;;;;;;2250.00;999.90;;;;;;;19.37;57.92;96076.88;2079054;28;20201;-58
2023/07/01 08:29:21;;;;;;;2250.00;999.90;;;;;;;19.49;57.92;96066.16;2078069;28;20229;-60
2023/07/01 08:30:23;;;;;;;2250.00;999.90;;;;;;;19.74;57.80;96086.81;2078744;28;20200;-60
2023/07/01 08:31:31;;;;;;;2250.00;999.90;;;;;;;19.69;57.51;96081.09;2078618;28;20200;-60
2023/07/01 08:32:33;;;;;;;890.28;388.13;;;;;;;19.50;56.87;96083.72;2078184;28;20204;-60
2023/07/01 08:33:35;;;;;;;2250.00;999.90;;;;;;;19.48;57.20;96081.22;2077155;28;20204;-59
2023/07/01 08:34:36;;;;;;;2250.00;999.90;;;;;;;19.49;56.85;96082.03;2078326;28;20197;-59
2023/07/01 08:35:38;;;;;;;2250.00;999.90;;;;;;;19.40;56.69;96076.63;2078859;28;20201;-60
2023/07/01 08:36:39;;;;;;;2250.00;999.90;;;;;;;19.70;56.88;96072.16;2078132;28;20212;-60
2023/07/01 08:37:41;;;;;;;2250.00;999.90;;;;;;;19.49;57.27;96085.53;2077996;28;20189;-59
2023/07/01 08:38:42;;;;;;;2250.00;999.90;;;;;;;19.62;56.94;96076.47;2078176;28;20189;-60
2023/07/01 08:39:44;;;;;;;2250.00;999.90;;;;;;;19.74;56.57;96084.16;2078795;28;20228;-59
2023/07/01 08:40:50;;;;;;;2250.00;999.90;;;;;;;19.49;56.69;96071.44;2078212;28;20639;-60
2023/07/01 08:41:56;;;;;;;2250.00;999.90;;;;;;;19.48;57.29;96078.56;2077811;28;20208;-60
2023/07/01 08:43:03;;;;;;;2250.00;999.90;;;;;;;19.67;57.19;96074.28;2077837;28;20758;-59
2023/07/01 08:44:05;;;;;;;2250.00;999.90;;;;;;;19.67;56.30;96067.16;2077961;28;20274;-59
2023/07/01 08:45:08;;;;;;;1332.38;565.60;;;;;;;19.66;56.58;96068.13;2078674;28;20663;-59
2023/07/01 08:46:12;;;;;;;1693.05;752.85;;;;;;;19.64;55.88;96074.53;2078098;28;20201;-59
2023/07/01 08:47:16;;;;;;;2250.00;999.90;;;;;;;19.84;56.09;96068.28;2077762;28;20200;-60
2023/07/01 08:48:21;;;;;;;2250.00;999.90;;;;;;;20.19;55.84;96060.72;2078454;28;20209;-59
2023/07/01 08:49:23;;;;;;;2250.00;999.90;;;;;;;20.55;55.58;96066.22;2077939;28;20231;-59
2023/07/01 08:50:31;;;;;;;2102.90;972.67;;;;;;;20.31;54.98;96086.06;2078910;28;20619;-59
2023/07/01 08:51:40;;;;;;;2250.00;999.90;;;;;;;20.01;55.12;96058.81;2078744;28;20249;-59
2023/07/01 08:52:42;;;;;;;1583.82;821.17;;;;;;;20.01;55.54;96068.56;2078650;28;20336;-59
2023/07/01 08:53:45;;;;;;;1093.78;824.50;;;;;;;19.88;55.63;96071.50;2077940;28;20190;-59
2023/07/01 08:54:46;;;;;;;1293.50;793.80;;;;;;;19.81;55.49;96065.06;2078619;28;20219;-59
2023/07/01 08:55:48;;;;;;;2250.00;999.90;;;;;;;19.96;56.21;96062.84;2077429;28;20541;-59
2023/07/01 08:56:50;;;;;;;1440.20;760.92;;;;;;;19.88;55.82;96064.41;2078698;28;20197;-59
2023/07/01 08:57:52;;;;;;;1413.43;687.35;;;;;;;20.00;55.82;96059.78;2078653;28;20251;-60
2023/07/01 08:58:54;;;;;;;2250.00;999.90;;;;;;;19.96;56.21;96058.41;2078063;28;20320;-59
2023/07/01 08:59:55;;;;;;;2250.00;999.90;;;;;;;20.08;56.74;96067.00;2078671;28;20614;-59
2023/07/01 09:00:57;;;;;;;2250.00;999.90;;;;;;;20.18;57.18;96061.72;2077802;28;20201;-59
2023/07/01 09:02:01;;;;;;;2250.00;999.90;;;;;;;20.53;56.27;96050.44;2078122;28;20204;-59
2023/07/01 09:03:03;;;;;;;1225.47;524.47;;;;;;;20.88;55.66;96050.75;2078509;28;20245;-59
2023/07/01 09:04:04;;;;;;;2250.00;999.90;;;;;;;20.88;55.23;96064.00;2078110;28;20240;-60
2023/07/01 09:05:07;;;;;;;1183.85;580.28;;;;;;;20.41;55.14;96061.38;2078812;28;20193;-59
2023/07/01 09:06:08;;;;;;;2250.00;999.90;;;;;;;20.23;55.66;96052.34;2078828;28;20201;-59
2023/07/01 09:07:10;;;;;;;1450.03;664.17;;;;;;;20.45;56.16;96052.16;2078787;28;20197;-59
2023/07/01 09:08:11;;;;;;;1585.20;790.60;;;;;;;20.39;55.21;96057.06;2078613;28;20704;-59
2023/07/01 09:09:13;;;;;;;1567.38;780.70;;;;;;;20.32;55.21;96048.00;2077799;28;20278;-59
2023/07/01 09:10:14;;;;;;;2250.00;999.90;;;;;;;20.61;55.26;96041.75;2078635;28;20832;-59
2023/07/01 09:11:18;;;;;;;1654.00;745.63;;;;;;;20.49;54.74;96042.91;2078202;28;20228;-59
2023/07/01 09:12:24;;;;;;;2250.00;999.90;;;;;;;20.77;55.08;96050.94;2077607;28;20201;-59
2023/07/01 09:13:26;;;;;;;2250.00;999.90;;;;;;;20.74;55.03;96051.25;2078413;28;20200;-59
2023/07/01 09:15:00;;;;;;;1226.13;764.60;;;;;;;20.81;55.11;96054.97;2074796;28;20702;-59
2023/07/01 09:16:02;;;;;;;1339.93;999.90;;;;;;;20.98;53.42;96040.09;2072785;28;20259;-60
2023/07/01 09:17:27;;;;;;;1411.45;999.90;;;;;;;20.90;53.31;96043.50;2073179;28;20225;-59
2023/07/01 09:18:29;;;;;;;1871.80;999.90;;;;;;;20.44;52.84;96051.28;2073184;28;20201;-59
2023/07/01 09:19:31;;;;;;;1447.28;999.90;;;;;;;20.33;53.07;96039.06;2072008;28;20740;-59
2023/07/01 09:20:33;;;;;;;1039.90;937.58;;;;;;;20.26;53.16;96037.97;2073329;28;20774;-59
2023/07/01 09:21:34;;;;;;;1136.32;993.17;;;;;;;20.37;53.23;96037.78;2073172;28;20198;-59
2023/07/01 09:22:38;;;;;;;1433.35;999.90;;;;;;;20.50;53.35;96037.47;2073310;28;20197;-59
2023/07/01 09:23:40;;;;;;;1510.30;999.90;;;;;;;20.76;53.34;96036.00;2071991;28;20670;-59
2023/07/01 09:24:41;;;;;;;1552.88;999.90;;;;;;;21.09;53.11;96036.38;2072378;28;20201;-58
2023/07/01 09:25:43;;;;;;;1422.10;999.90;;;;;;;20.90;53.00;96035.53;2073104;28;20194;-59
2023/07/01 09:26:52;;;;;;;1289.80;993.08;;;;;;;20.74;53.87;96036.16;2071090;28;20201;-59
2023/07/01 09:27:54;;;;;;;1189.53;942.42;;;;;;;20.90;54.14;96039.97;2073029;28;20205;-59
2023/07/01 09:28:57;;;;;;;1667.28;999.90;;;;;;;20.93;52.80;96042.34;2072554;28;20229;-59
2023/07/01 09:29:59;;;;;;;990.42;891.70;;;;;;;20.82;51.22;96048.69;2072674;28;20236;-59
2023/07/01 09:31:03;;;;;;;1029.85;933.22;;;;;;;20.74;51.38;96030.03;2073059;28;20201;-59
2023/07/01 09:32:05;;;;;;;959.50;847.90;;;;;;;20.90;51.52;96032.88;2073045;28;20874;-59
2023/07/01 09:33:10;;;;;;;1041.22;903.58;;;;;;;21.22;51.12;96042.19;2073108;28;20387;-60
2023/07/01 09:34:11;;;;;;;316.70;244.50;;;;;;;20.83;50.54;96034.44;2072514;28;20616;-59
2023/07/01 09:35:13;;;;;;;212.05;183.30;;;;;;;20.93;50.41;96035.22;2072977;28;20638;-59
2023/07/01 09:36:25;;;;;;;221.80;167.13;;;;;;;20.88;50.13;96032.19;2072929;28;20194;-59
2023/07/01 09:37:27;;;;;;;270.08;220.77;;;;;;;20.87;50.77;96030.50;2072546;28;20252;-59
2023/07/01 09:38:29;;;;;;;121.53;105.28;;;;;;;21.04;49.86;96023.56;2072272;28;20225;-60
2023/07/01 09:39:34;;;;;;;220.10;201.18;;;;;;;21.24;49.63;96026.91;2072681;28;20297;-59
2023/07/01 09:40:36;;;;;;;45.67;40.15;;;;;;;21.09;49.65;96020.47;2072924;28;20208;-59
2023/07/01 09:41:38;;;;;;;227.65;204.07;;;;;;;21.00;50.10;96023.03;2072479;28;20339;-57
2023/07/01 09:42:55;;;;;;;146.45;135.25;;;;;;;21.30;49.63;96018.34;2073068;28;20198;-57
2023/07/01 09:43:58;;;;;;;30.98;18.40;;;;;;;21.15;48.98;96036.66;2072339;28;20241;-57
2023/07/01 09:45:03;;;;;;;6.15;2.20;;;;;;;21.12;49.37;96030.78;2072776;28;20288;-56
2023/07/01 09:46:05;;;;;;;6.13;3.15;;;;;;;20.99;49.36;96021.38;2073033;28;20193;-57
2023/07/01 09:47:06;;;;;;;28.20;22.88;;;;;;;21.26;49.45;96017.00;2073193;28;20208;-56
2023/07/01 09:48:11;;;;;;;16.75;3.92;;;;;;;21.50;48.88;96019.06;2073157;28;20197;-57
2023/07/01 09:49:13;;;;;;;17.60;8.80;;;;;;;21.61;49.15;96017.19;2071922;28;20344;-57
2023/07/01 09:50:26;;;;;;;8.05;1.98;;;;;;;21.19;48.89;96026.53;2072970;28;20198;-57
2023/07/01 09:51:27;;;;;;;6.50;2.20;;;;;;;21.28;48.44;96022.16;2072957;28;20652;-56
2023/07/01 09:52:35;;;;;;;11.32;2.67;;;;;;;21.36;47.87;96011.63;2072954;28;20204;-57
2023/07/01 09:53:38;;;;;;;11.05;2.63;;;;;;;21.24;46.92;96011.00;2071021;28;20198;-56
2023/07/01 09:54:42;;;;;;;7.15;2.35;;;;;;;21.18;48.02;96001.81;2073072;28;20198;-57
2023/07/01 09:55:43;;;;;;;7.38;2.30;;;;;;;21.08;47.84;96016.13;2072301;28;20670;-57
2023/07/01 09:56:45;;;;;;;4.82;2.20;;;;;;;21.01;48.38;96007.94;2073038;28;20652;-57
2023/07/01 09:57:47;;;;;;;15.85;2.50;;;;;;;21.10;48.53;96012.34;2073039;28;20232;-56
2023/07/01 09:58:50;;;;;;;6.07;2.85;;;;;;;21.18;48.14;96004.47;2072369;28;20660;-57
2023/07/01 09:59:53;;;;;;;4.82;2.00;;;;;;;21.11;48.87;95999.91;2072385;28;20211;-57
2023/07/01 10:00:57;;;;;;;15.00;2.33;;;;;;;21.08;48.84;96005.50;2072308;28;20411;-56
2023/07/01 10:02:01;;;;;;;7.03;1.88;;;;;;;21.07;48.89;95987.94;2072725;28;20206;-57
2023/07/01 10:03:03;;;;;;;5.43;2.38;;;;;;;21.09;47.77;95991.25;2070636;28;20792;-57
2023/07/01 10:04:05;;;;;;;6.70;2.45;;;;;;;20.84;47.57;96002.44;2071521;28;20226;-59
2023/07/01 10:05:08;;;;;;;8.48;2.63;;;;;;;20.86;47.87;96003.16;2072068;28;20653;-59
2023/07/01 10:06:11;;;;;;;8.55;3.03;;;;;;;21.03;47.73;95998.84;2072628;28;20220;-59
2023/07/01 10:07:12;;;;;;;8.13;2.20;;;;;;;21.39;47.13;95992.72;2072416;28;20686;-59
2023/07/01 10:08:14;;;;;;;5.65;2.35;;;;;;;21.60;46.89;95989.78;2072827;28;20676;-59
2023/07/01 10:09:15;;;;;;;4.57;2.22;;;;;;;21.94;47.57;95986.41;2072279;28;20236;-59
2023/07/01 10:10:18;;;;;;;4.88;2.15;;;;;;;21.76;46.95;95991.72;2072715;28;20205;-59
2023/07/01 10:11:22;;;;;;;15.88;3.25;;;;;;;21.42;46.76;95986.28;2072552;28;20367;-59
2023/07/01 10:12:24;;;;;;;5.13;2.58;;;;;;;21.42;46.86;95994.25;2072178;28;20233;-59
2023/07/01 10:13:28;;;;;;;9.52;2.75;;;;;;;21.50;46.76;95992.50;2072881;28;20309;-59
2023/07/01 10:14:33;;;;;;;6.20;2.30;;;;;;;21.80;46.05;95984.28;2071969;28;20255;-60
2023/07/01 10:15:35;;;;;;;3.90;2.20;;;;;;;21.93;45.57;95995.38;2072175;28;20806;-59
2023/07/01 10:16:47;;;;;;;4.80;1.98;;;;;;;22.26;45.20;95990.25;2072558;28;20664;-59
2023/07/01 10:17:50;;;;;;;6.78;2.60;;;;;;;22.53;45.05;95987.59;2071429;28;20657;-59
2023/07/01 10:18:53;;;;;;;6.03;2.38;;;;;;;22.81;44.75;95983.72;2071642;28;20282;-59
2023/07/01 10:19:54;;;;;;;7.30;2.65;;;;;;;22.78;44.80;95991.22;2072340;28;20719;-60
2023/07/01 10:21:24;;;;;;;6.18;2.05;;;;;;;22.81;43.98;95989.03;2072663;28;20202;-59
2023/07/01 10:22:31;;;;;;;4.07;2.35;;;;;;;22.86;44.12;95988.56;2072251;28;20310;-59
2023/07/01 10:23:47;;;;;;;6.90;2.67;;;;;;;22.67;43.83;95989.66;2071676;28;20209;-59
2023/07/01 10:25:03;;;;;;;6.47;2.53;;;;;;;22.82;44.02;95987.22;2071800;28;20251;-59
2023/07/01 10:26:36;;;;;;;6.38;2.83;;;;;;;22.56;43.91;95992.59;2072216;28;20201;-59
2023/07/01 10:27:41;;;;;;;5.35;2.55;;;;;;;22.61;45.05;95977.00;2071768;28;20285;-59
2023/07/01 10:28:42;;;;;;;4.32;2.20;;;;;;;22.40;45.42;95983.56;2071238;28;20236;-59
2023/07/01 10:29:56;;;;;;;4.43;2.40;;;;;;;22.47;44.84;95989.06;2072436;28;20194;-59
2023/07/01 10:30:57;;;;;;;6.22;2.40;;;;;;;22.29;44.75;95979.28;2072187;28;20205;-59
2023/07/01 10:32:08;;;;;;;6.07;2.50;;;;;;;22.03;44.93;95989.97;2072514;28;20202;-59
2023/07/01 10:33:30;;;;;;;4.85;2.08;;;;;;;21.82;45.23;95987.63;2070967;28;20197;-59
2023/07/01 10:34:53;;;;;;;8.20;2.65;;;;;;;22.32;44.84;95986.13;2070490;28;20336;-59
2023/07/01 10:36:01;;;;;;;5.65;2.88;;;;;;;22.88;44.06;95983.06;2072332;28;20685;-59
2023/07/01 10:37:14;;;;;;;6.57;3.30;;;;;;;22.79;43.28;95974.22;2072028;28;20529;-60
2023/07/01 10:38:21;;;;;;;6.13;3.10;;;;;;;22.62;44.27;95966.19;2072218;28;20237;-57
2023/07/01 10:39:33;;;;;;;3.92;2.40;;;;;;;22.92;44.07;95976.41;2071825;28;20285;-57
2023/07/01 10:40:43;;;;;;;5.15;2.60;;;;;;;23.48;43.76;95980.22;2072254;28;20233;-57
2023/07/01 10:41:49;;;;;;;6.05;3.00;;;;;;;23.24;43.33;95977.56;2079850;28;20197;-57
2023/07/01 10:42:50;;;;;;;7.43;2.70;;;;;;;23.15;43.68;95972.19;2079207;28;20565;-56
2023/07/01 10:44:22;;;;;;;4.30;2.38;;;;;;;22.93;44.08;95973.63;2070528;28;20229;-57
2023/07/01 10:45:26;;;;;;;5.70;2.58;;;;;;;22.55;44.23;95977.63;2072063;28;20827;-57
2023/07/01 10:46:28;;;;;;;5.40;2.60;;;;;;;22.43;44.89;95980.56;2071887;28;20205;-57
2023/07/01 10:47:30;;;;;;;8.38;3.10;;;;;;;22.38;44.96;95974.88;2072228;28;20206;-57
2023/07/01 10:48:31;;;;;;;6.55;2.72;;;;;;;22.65;45.36;95976.53;2071773;28;20255;-57
2023/07/01 10:49:33;;;;;;;8.75;3.20;;;;;;;22.53;44.73;95966.31;2072080;28;20641;-56
2023/07/01 10:51:04;;;;;;;6.15;2.50;;;;;;;22.48;44.87;95964.13;2071834;28;20186;-57
2023/07/01 10:52:06;;;;;;;5.20;2.58;;;;;;;22.42;45.15;95973.56;2072013;28;20233;-57
2023/07/01 10:53:10;;;;;;;5.97;2.65;;;;;;;22.07;45.90;95963.88;2072137;28;20204;-57
2023/07/01 10:54:12;;;;;;;5.63;2.40;;;;;;;22.06;46.51;95963.06;2071372;28;20313;-57
2023/07/01 10:55:43;;;;;;;4.22;2.38;;;;;;;22.30;45.98;95970.34;2072017;28;20285;-57
2023/07/01 10:57:18;;;;;;;3.97;2.15;;;;;;;22.32;46.27;95970.16;2071782;28;20190;-56
2023/07/01 10:58:23;;;;;;;5.80;2.38;;;;;;;22.35;46.18;95970.69;2060395;28;20332;-57
2023/07/01 10:59:26;;;;;;;4.93;2.50;;;;;;;22.35;46.24;95968.03;2071339;28;20221;-57
2023/07/01 11:00:38;;;;;;;4.90;2.50;;;;;;;22.24;45.75;95967.47;2071834;28;20557;-56
2023/07/01 11:01:44;;;;;;;6.30;2.65;;;;;;;22.23;46.26;95963.16;2072369;28;20197;-57
2023/07/01 11:02:46;;;;;;;5.03;2.17;;;;;;;22.28;46.83;95961.69;2072490;28;20553;-58
2023/07/01 11:03:47;;;;;;;4.50;2.38;;;;;;;22.18;46.51;95974.25;2070629;28;20240;-57
2023/07/01 11:04:52;;;;;;;6.82;1.98;;;;;;;21.99;46.83;95973.47;2070188;28;20229;-57
2023/07/01 11:05:58;;;;;;;5.35;2.58;;;;;;;21.96;47.11;95972.97;2071986;28;20194;-57
2023/07/01 11:07:00;;;;;;;4.15;2.03;;;;;;;21.91;47.39;95954.81;2072108;28;20213;-57
2023/07/01 11:08:07;;;;;;;4.80;2.17;;;;;;;21.96;47.31;95960.50;2071706;28;20268;-57
2023/07/01 11:09:08;;;;;;;6.18;2.70;;;;;;;21.76;47.00;95962.50;2071910;28;20665;-57
2023/07/01 11:10:10;;;;;;;4.40;2.40;;;;;;;22.05;47.46;95965.88;2072211;28;20205;-57
2023/07/01 11:11:19;;;;;;;4.50;2.35;;;;;;;21.81;47.43;95960.25;2072302;28;20825;-56
2023/07/01 11:12:21;;;;;;;7.80;2.13;;;;;;;21.93;48.27;95966.13;2071456;28;20517;-56
2023/07/01 11:13:23;;;;;;;5.60;2.58;;;;;;;21.84;48.20;95967.91;2072201;28;20202;-57
2023/07/01 11:14:36;;;;;;;5.50;1.90;;;;;;;21.49;48.66;95963.44;2071720;28;20228;-57
2023/07/01 11:15:38;;;;;;;4.20;1.98;;;;;;;21.34;49.47;95966.66;2071376;28;20197;-56
2023/07/01 11:16:39;;;;;;;5.20;2.20;;;;;;;21.34;49.81;95971.09;2072140;28;20288;-56
2023/07/01 11:17:51;;;;;;;5.90;2.28;;;;;;;21.27;49.87;95968.22;2072296;28;20247;-56
2023/07/01 11:18:54;;;;;;;4.35;2.38;;;;;;;21.10;49.93;95963.75;2071388;28;20253;-57
2023/07/01 11:19:57;;;;;;;3.88;2.05;;;;;;;21.17;50.48;95962.16;2072167;28;20205;-57
2023/07/01 11:20:58;;;;;;;4.88;2.10;;;;;;;21.11;49.97;95958.28;2070928;28;20212;-56
2023/07/01 11:22:01;;;;;;;3.88;1.50;;;;;;;21.16;50.13;95960.50;2072189;28;20197;-56
2023/07/01 11:23:03;;;;;;;7.65;2.55;;;;;;;21.23;50.17;95960.72;2071798;28;20209;-57
2023/07/01 11:24:08;;;;;;;4.45;2.13;;;;;;;21.11;50.32;95963.59;2070885;28;20221;-57
2023/07/01 11:25:10;;;;;;;6.00;1.90;;;;;;;21.30;50.02;95964.44;2071881;28;20214;-57
2023/07/01 11:26:18;;;;;;;4.97;1.73;;;;;;;21.26;50.47;95960.44;2072390;28;20282;-57
2023/07/01 11:27:21;;;;;;;4.38;2.30;;;;;;;21.22;50.40;95962.53;2072052;28;20197;-57
2023/07/01 11:28:33;;;;;;;6.35;2.10;;;;;;;21.22;50.36;95962.53;2071433;28;20869;-58
2023/07/01 11:29:36;;;;;;;4.72;1.90;;;;;;;21.34;50.89;95961.34;2071304;28;20601;-57
2023/07/01 11:30:39;;;;;;;5.43;1.92;;;;;;;21.39;50.53;95955.56;2072011;28;20295;-58
2023/07/01 11:31:41;;;;;;;4.75;1.80;;;;;;;21.54;50.78;95961.16;2070868;28;20702;-57
2023/07/01 11:32:43;;;;;;;3.47;1.75;;;;;;;21.64;50.61;95966.41;2072167;28;20217;-57
2023/07/01 11:33:45;;;;;;;5.00;2.42;;;;;;;21.64;50.94;95964.59;2071655;28;20215;-57
2023/07/01 11:34:49;;;;;;;7.38;2.25;;;;;;;21.32;50.42;95970.44;2071894;28;20637;-57
2023/07/01 11:35:55;;;;;;;6.03;2.25;;;;;;;21.47;51.27;95962.75;2070761;28;20197;-58
2023/07/01 11:36:58;;;;;;;19.40;2.33;;;;;;;21.34;50.82;95961.34;2072112;28;20657;-58
2023/07/01 11:38:20;;;;;;;5.22;2.17;;;;;;;21.31;50.25;95963.47;2071826;28;20281;-58
2023/07/01 11:39:21;;;;;;;5.45;1.95;;;;;;;21.02;50.85;95964.50;2070560;28;20233;-58